• Join FlightAware (Why Join?)
  • Login
  • US Flag 
05:54AM EDT


 

Airport Tracker/Info


-or-


 

Live Flight TrackerFlight Track Log ✈ EJA846 ✈ 23-Apr-2013 ✈ MYER / RSD - KPBI

Flight Track Log - Related Links

Times and Time Zones

All times are in EDT time to prevent confusion due to time zone crossing. See the EJA846 flight status page for this flight to view local times or setup timezone preferences in your user account.

Time Position Orientation Groundspeed Altitude Reporting Facility
EDT Latitude Longitude Course Direction KTS MPH feet Rate Location/Type
04:44PM 24.9600 -76.8222 298° West 358 412 10,400  Level Miami Center
04:45PM 24.9850 -76.9139 287° West 337 388 11,900 1,740 Climbing Miami Center
04:46PM 25.0311 -77.0033 300° West 320 368 13,900 1,980 Climbing Miami Center
04:47PM 25.0747 -77.0883 300° West 320 368 15,900 1,980 Climbing Miami Center
04:48PM 25.1228 -77.1756 301° West 326 375 17,900 1,980 Climbing Miami Center
04:49PM 25.1538 -76.7298 298° West  Level Estimated
04:49PM 25.1686 -77.2631 300° West 331 381 19,900  Level Miami Center
04:50PM 25.2142 -77.3503 300° West 331 381 21,900 1,020 Climbing Miami Center
04:51PM 25.2619 -77.4447 299° West 331 381 22,000  Climbing Miami Center
04:52PM 25.3158 -77.5508 299° West 344 396 22,000  Level Miami Center
04:53PM 25.3633 -77.6475 299° West 355 409 22,000  Level Miami Center
04:55PM 25.4625 -77.8369 300° West 355 409 22,000  Level Miami Center
04:56PM 25.5122 -77.9342 300° West 355 409 22,000  Level Miami Center
04:57PM 25.5617 -78.0289 300° West 355 409 22,000  Level Miami Center
04:58PM 25.6108 -78.1264 299° West 355 409 22,000 -180 Level Miami Center
04:59PM 25.6603 -78.2214 300° West 355 409 21,700 -720 Descending Miami Center
05:00PM 25.7094 -78.3211 299° West 360 414 20,600 -900 Descending Miami Center
05:01PM 25.7586 -78.4164 300° West 360 414 20,000 -300 Descending Miami Center
05:02PM 25.8056 -78.5161 298° West 355 409 20,000  Level Miami Center
05:03PM 25.8567 -78.6069 302° West 360 414 20,000  Level Miami Center
05:04PM 25.9058 -78.7022 300° West 355 409 20,000  Level Miami Center
05:05PM 25.9503 -78.8000 297° West 355 409 20,000 -600 Level Miami Center
05:06PM 26.0056 -78.8886 305° West 355 409 18,800 -1,500 Descending Miami Center
05:07PM 26.0544 -78.9728 303° West 355 409 17,000 -1,980 Descending Miami Center
05:08PM 26.1056 -79.0639 302° West 360 414 14,900 -2,040 Descending Miami Center
05:09PM 26.1544 -79.1483 303° West 349 402 13,000 -1,860 Descending Miami Center
05:10PM 26.2031 -79.2325 303° West 336 387 11,200 -1,800 Descending Miami Center
05:11PM 26.2458 -79.3097 302° West 314 361 9,500 -1,740 Descending Miami Center
05:12PM 26.2819 -79.3825 299° West 287 330 7,800 -1,740 Descending Miami Center
05:13PM 26.3267 -79.4622 302° West 266 306 6,100 -1,440 Descending Miami Center
05:14PM 26.3672 -79.5303 304° West 275 316 5,000 -600 Descending Miami Center
05:15PM 26.4056 -79.6008 301° West 270 311 5,000  Level Miami Center
05:16PM 26.4461 -79.6689 304° West 270 311 5,000  Level Miami Center
05:17PM 26.4822 -79.7372 301° West 270 311 5,000  Level Miami Center
05:18PM 26.5228 -79.8078 303° West 264 304 5,000  Level Miami Center
05:19PM 26.5631 -79.8783 303° West 264 304 5,000 -300 Level Miami Center
05:20PM 26.5781 -79.9578 282° West 264 304 4,400 -540 Descending Miami Center
05:21PM 26.5783 -80.0461 270° West 278 320 4,000 -240 Descending Miami Center
05:22PM 26.5806 -80.1250 272° West 270 311 4,000  Level Miami Center
05:24PM 26.6667 -80.0833 North  Level FlightAware Approximate
05:31PM 26.6832 -80.0956 North  Level Estimated
05:32PM 26.6832 -80.0956 North  Level Estimated
05:33PM 26.6832 -80.0956 North  Level Estimated
05:34PM 26.6832 -80.0956 North  Level Estimated
05:35PM 26.6832 -80.0956 North  Level Estimated
05:36PM 26.6832 -80.0956 North  Level Estimated
05:37PM 26.6832 -80.0956 North  Level Estimated